Time;durP1;ratioP1;P1;durP2;ratioP2;P2;SDS_P1;SDS_P2;PMS_P1;PMS_P2;Temp;Humidity;BMP_temperature;BMP_pressure;BME280_temperature;BME280_humidity;BME280_pressure;Samples;Min_cycle;Max_cycle;Signal;HPM_P1;HPM_P2
2021/12/12 00:00:03;;;;;;;18.50;5.57;;;;;;;;;;5024869;28;20152;-53
2021/12/12 00:02:44;;;;;;;10.70;3.55;;;;;;;;;;5027552;28;20057;-56
2021/12/12 00:05:12;;;;;;;9.15;4.00;;;;;;;;;;5024367;28;20077;-56
2021/12/12 00:07:39;;;;;;;14.73;4.50;;;;;;;;;;5030780;28;20084;-54
2021/12/12 00:10:09;;;;;;;8.02;3.47;;;;;;;;;;5026793;28;20044;-55
2021/12/12 00:12:38;;;;;;;16.17;3.75;;;;;;;;;;5029743;28;20112;-57
2021/12/12 00:15:08;;;;;;;7.43;3.20;;;;;;;;;;5025341;28;20081;-56
2021/12/12 00:17:35;;;;;;;9.95;3.78;;;;;;;;;;5030826;28;20114;-50
2021/12/12 00:20:04;;;;;;;9.23;3.38;;;;;;;;;;5025896;28;20053;-54
2021/12/12 00:22:32;;;;;;;11.18;3.35;;;;;;;;;;5029687;28;20057;-56
2021/12/12 00:24:58;;;;;;;11.55;3.53;;;;;;;;;;5027082;28;20107;-52
2021/12/12 00:27:26;;;;;;;11.65;3.72;;;;;;;;;;5028244;28;20127;-57
2021/12/12 00:29:53;;;;;;;14.97;4.00;;;;;;;;;;5025807;28;20049;-54
2021/12/12 00:32:23;;;;;;;9.50;3.50;;;;;;;;;;5029506;28;20077;-56
2021/12/12 00:34:52;;;;;;;10.10;3.00;;;;;;;;;;5026050;28;20103;-53
2021/12/12 00:37:19;;;;;;;12.00;3.60;;;;;;;;;;5029470;28;20077;-54
2021/12/12 00:39:50;;;;;;;11.25;3.53;;;;;;;;;;5029536;28;20045;-56
2021/12/12 00:42:19;;;;;;;16.80;4.15;;;;;;;;;;5039354;28;20086;-57
2021/12/12 00:44:48;;;;;;;12.65;3.33;;;;;;;;;;5026786;28;20049;-53
2021/12/12 00:47:15;;;;;;;10.52;2.88;;;;;;;;;;5025270;28;20077;-55
2021/12/12 00:49:42;;;;;;;8.38;3.67;;;;;;;;;;5029439;28;20045;-55
2021/12/12 00:52:09;;;;;;;14.27;3.58;;;;;;;;;;5026369;28;20057;-55
2021/12/12 00:54:37;;;;;;;8.60;3.20;;;;;;;;;;5027856;28;20057;-54
2021/12/12 00:57:05;;;;;;;8.25;3.30;;;;;;;;;;5025076;28;20136;-56
2021/12/12 00:59:32;;;;;;;9.50;3.47;;;;;;;;;;5027519;28;20057;-52
2021/12/12 01:02:00;;;;;;;10.45;4.05;;;;;;;;;;5023934;28;20163;-56
2021/12/12 01:04:29;;;;;;;7.32;3.17;;;;;;;;;;5026858;28;20098;-54
2021/12/12 01:06:55;;;;;;;;;;;;;;;;;;5025924;28;20144;-52
2021/12/12 01:09:23;;;;;;;12.48;3.72;;;;;;;;;;5029225;28;19983;-56
2021/12/12 01:11:51;;;;;;;10.40;3.08;;;;;;;;;;5025230;28;20073;-54
2021/12/12 01:14:20;;;;;;;12.13;4.03;;;;;;;;;;5034268;28;20061;-54
2021/12/12 01:16:49;;;;;;;17.83;4.57;;;;;;;;;;5031283;28;20053;-56
2021/12/12 01:19:18;;;;;;;16.23;3.72;;;;;;;;;;5028879;28;20088;-52
2021/12/12 01:21:46;;;;;;;11.13;3.72;;;;;;;;;;5024125;28;20087;-52
2021/12/12 01:24:15;;;;;;;12.45;3.33;;;;;;;;;;5031103;28;20049;-53
2021/12/12 01:26:42;;;;;;;17.25;4.07;;;;;;;;;;5024303;28;20061;-51
2021/12/12 01:29:08;;;;;;;13.35;4.47;;;;;;;;;;5028621;28;20145;-54
2021/12/12 01:31:39;;;;;;;12.60;4.93;;;;;;;;;;5020248;28;20081;-54
2021/12/12 01:34:12;;;;;;;14.38;4.65;;;;;;;;;;5024680;28;20061;-52
2021/12/12 01:36:51;;;;;;;11.95;4.18;;;;;;;;;;5027936;28;20076;-51
2021/12/12 01:39:19;;;;;;;9.98;3.08;;;;;;;;;;5023850;28;20049;-50
2021/12/12 01:41:49;;;;;;;13.45;4.20;;;;;;;;;;5027725;28;20053;-55
2021/12/12 01:44:18;;;;;;;9.10;3.38;;;;;;;;;;5032260;28;20560;-53
2021/12/12 01:46:48;;;;;;;14.27;4.03;;;;;;;;;;5029364;28;20052;-53
2021/12/12 01:49:34;;;;;;;15.63;3.97;;;;;;;;;;5104548;27;20162;-54
2021/12/12 01:52:01;;;;;;;14.48;4.63;;;;;;;;;;5118885;28;20067;-54
2021/12/12 01:54:31;;;;;;;10.05;3.58;;;;;;;;;;5108759;28;20051;-52
2021/12/12 01:56:59;;;;;;;8.73;3.38;;;;;;;;;;5098791;28;20113;-54
2021/12/12 01:59:27;;;;;;;13.20;3.88;;;;;;;;;;5109611;28;20263;-54
2021/12/12 02:01:55;;;;;;;13.13;4.05;;;;;;;;;;5104273;28;20048;-53
2021/12/12 02:04:24;;;;;;;11.27;3.58;;;;;;;;;;5091171;28;20101;-54
2021/12/12 02:06:53;;;;;;;13.55;4.15;;;;;;;;;;5100973;28;20082;-53
2021/12/12 02:09:19;;;;;;;;;;;;;;;;;;5096354;28;20069;-51
2021/12/12 02:11:47;;;;;;;7.03;2.78;;;;;;;;;;5091543;28;19973;-51
2021/12/12 02:14:16;;;;;;;11.05;4.18;;;;;;;;;;5092842;28;20040;-50
2021/12/12 02:16:44;;;;;;;13.50;4.10;;;;;;;;;;5092711;28;20147;-53
2021/12/12 02:19:11;;;;;;;2.70;1.40;;;;;;;;;;5088912;28;20052;-53
2021/12/12 02:21:54;;;;;;;11.73;3.28;;;;;;;;;;5098569;28;20150;-51
2021/12/12 02:35:23;;;;;;;17.25;4.55;;;;;;;;;;5097600;28;20048;-52
2021/12/12 02:37:50;;;;;;;9.48;3.55;;;;;;;;;;5095889;28;20113;-54
2021/12/12 02:40:20;;;;;;;7.35;2.92;;;;;;;;;;5088579;28;20115;-56
2021/12/12 02:42:46;;;;;;;9.82;3.13;;;;;;;;;;5101277;28;20147;-55
2021/12/12 02:45:15;;;;;;;11.48;2.33;;;;;;;;;;5108601;28;20127;-52
2021/12/12 02:47:43;;;;;;;8.07;2.47;;;;;;;;;;5096810;28;20060;-55
2021/12/12 02:50:13;;;;;;;8.05;2.95;;;;;;;;;;5096302;28;20078;-53
2021/12/12 02:52:41;;;;;;;10.48;3.13;;;;;;;;;;5096300;28;20154;-54
2021/12/12 02:55:10;;;;;;;16.33;3.20;;;;;;;;;;5097262;28;20135;-52
2021/12/12 02:57:38;;;;;;;12.52;2.60;;;;;;;;;;5103837;28;20050;-55
2021/12/12 03:00:05;;;;;;;11.37;2.67;;;;;;;;;;5083103;28;20082;-55
2021/12/12 03:02:40;;;;;;;15.38;3.03;;;;;;;;;;5116208;22;20061;-55
2021/12/12 03:05:08;;;;;;;14.00;3.45;;;;;;;;;;4986312;28;20128;-54
2021/12/12 03:07:35;;;;;;;9.20;2.53;;;;;;;;;;5013972;28;20058;-54
2021/12/12 03:10:02;;;;;;;15.40;2.58;;;;;;;;;;5009195;28;20058;-55
2021/12/12 03:12:31;;;;;;;6.70;2.53;;;;;;;;;;5020292;28;20049;-54
2021/12/12 03:15:13;;;;;;;11.32;2.92;;;;;;;;;;5011057;28;20112;-53
2021/12/12 03:17:40;;;;;;;17.85;2.75;;;;;;;;;;5004679;28;20073;-51
2021/12/12 03:20:23;;;;;;;11.55;3.20;;;;;;;;;;4989852;28;20109;-52
2021/12/12 03:22:50;;;;;;;8.77;2.45;;;;;;;;;;4984450;28;20058;-52
2021/12/12 03:25:25;;;;;;;9.52;2.75;;;;;;;;;;4984794;28;20057;-53
2021/12/12 03:27:52;;;;;;;9.23;2.80;;;;;;;;;;4989982;28;20046;-51
2021/12/12 03:30:20;;;;;;;15.25;3.08;;;;;;;;;;4977709;28;20065;-54
2021/12/12 03:32:47;;;;;;;9.50;2.60;;;;;;;;;;4998245;28;20435;-54
2021/12/12 03:35:14;;;;;;;11.90;3.25;;;;;;;;;;5001232;28;20113;-54
2021/12/12 03:37:41;;;;;;;9.50;2.45;;;;;;;;;;5010811;28;20053;-54
2021/12/12 03:40:10;;;;;;;7.65;2.72;;;;;;;;;;4989031;28;20058;-53
2021/12/12 03:42:37;;;;;;;8.23;2.05;;;;;;;;;;5000948;28;20470;-54
2021/12/12 03:45:06;;;;;;;6.97;2.20;;;;;;;;;;5007346;28;20053;-55
2021/12/12 03:47:32;;;;;;;;;;;;;;;;;;5005409;28;20074;-55
2021/12/12 03:50:01;;;;;;;10.07;2.80;;;;;;;;;;5004735;28;19926;-53
2021/12/12 03:52:28;;;;;;;10.15;2.63;;;;;;;;;;5003280;28;20408;-53
2021/12/12 03:54:58;;;;;;;7.88;2.70;;;;;;;;;;4996090;28;20112;-54
2021/12/12 03:57:24;;;;;;;13.00;2.63;;;;;;;;;;5020418;28;20150;-51
2021/12/12 03:59:52;;;;;;;6.75;2.45;;;;;;;;;;5006722;28;20146;-55
2021/12/12 04:02:18;;;;;;;6.82;2.78;;;;;;;;;;5005103;28;20046;-55
2021/12/12 04:04:47;;;;;;;8.93;2.65;;;;;;;;;;5017282;28;20145;-56
2021/12/12 04:07:16;;;;;;;6.30;2.58;;;;;;;;;;5008477;28;20058;-54
2021/12/12 04:09:43;;;;;;;8.13;2.60;;;;;;;;;;5016317;28;20060;-53
2021/12/12 04:12:13;;;;;;;11.93;2.95;;;;;;;;;;5008387;28;20058;-51
2021/12/12 04:14:41;;;;;;;8.60;3.00;;;;;;;;;;5003507;28;20119;-54
2021/12/12 04:17:08;;;;;;;;;;;;;;;;;;5007484;28;20100;-54
2021/12/12 04:19:35;;;;;;;7.55;2.45;;;;;;;;;;5005731;28;19976;-53
2021/12/12 04:22:02;;;;;;;11.70;4.22;;;;;;;;;;5018109;28;20064;-55
2021/12/12 04:24:33;;;;;;;9.43;3.25;;;;;;;;;;5002119;28;20105;-53
2021/12/12 04:27:00;;;;;;;9.45;3.42;;;;;;;;;;5009464;28;20050;-54
2021/12/12 04:29:28;;;;;;;9.88;2.88;;;;;;;;;;5013587;28;20085;-54
2021/12/12 04:31:56;;;;;;;8.30;3.10;;;;;;;;;;5006669;28;20084;-52
2021/12/12 04:34:26;;;;;;;9.10;3.83;;;;;;;;;;5004367;28;20563;-54
2021/12/12 04:36:53;;;;;;;10.75;3.25;;;;;;;;;;5004913;28;20142;-53
2021/12/12 04:39:21;;;;;;;10.32;3.13;;;;;;;;;;5017140;28;20067;-54
2021/12/12 04:41:50;;;;;;;10.07;3.00;;;;;;;;;;5004662;28;20057;-55
2021/12/12 04:44:21;;;;;;;9.00;2.65;;;;;;;;;;5019887;28;20057;-53
2021/12/12 04:52:21;;;;;;;8.30;2.67;;;;;;;;;;5004191;28;20065;-54
2021/12/12 04:54:54;;;;;;;7.93;2.85;;;;;;;;;;5005407;28;20493;-53
2021/12/12 04:57:23;;;;;;;8.10;2.17;;;;;;;;;;5013651;28;20149;-52
2021/12/12 04:59:52;;;;;;;8.48;2.85;;;;;;;;;;5006012;28;20058;-52
2021/12/12 05:02:22;;;;;;;5.53;2.50;;;;;;;;;;5004196;28;20062;-51
2021/12/12 05:04:55;;;;;;;10.52;2.70;;;;;;;;;;5009560;28;20054;-55
2021/12/12 05:07:24;;;;;;;6.13;2.10;;;;;;;;;;5006278;28;20049;-54
2021/12/12 05:09:52;;;;;;;5.75;2.30;;;;;;;;;;5009997;28;20054;-57
2021/12/12 05:12:22;;;;;;;7.22;2.53;;;;;;;;;;5007524;28;20064;-56
2021/12/12 05:14:53;;;;;;;5.22;2.03;;;;;;;;;;5027010;28;20054;-56
2021/12/12 05:17:23;;;;;;;6.03;2.55;;;;;;;;;;5006792;28;20072;-54
2021/12/12 05:19:52;;;;;;;6.10;2.30;;;;;;;;;;5008581;28;20116;-57
2021/12/12 05:22:18;;;;;;;;;;;;;;;;;;5005021;28;20096;-51
2021/12/12 05:25:05;;;;;;;6.07;2.03;;;;;;;;;;5008299;28;19921;-56
2021/12/12 05:27:34;;;;;;;5.53;2.17;;;;;;;;;;4985261;28;20518;-55
2021/12/12 05:30:02;;;;;;;5.15;2.15;;;;;;;;;;4988146;28;20074;-56
2021/12/12 05:32:31;;;;;;;4.60;2.00;;;;;;;;;;4985929;28;20065;-56
2021/12/12 05:35:04;;;;;;;5.68;2.40;;;;;;;;;;4978121;28;20112;-56
2021/12/12 05:37:31;;;;;;;8.93;2.03;;;;;;;;;;4992654;28;20053;-57
2021/12/12 05:40:00;;;;;;;6.10;2.25;;;;;;;;;;5010202;28;20149;-57
2021/12/12 05:42:28;;;;;;;6.57;2.17;;;;;;;;;;5006291;28;20045;-55
2021/12/12 05:44:55;;;;;;;8.27;2.53;;;;;;;;;;5027077;28;20107;-55
2021/12/12 05:47:22;;;;;;;6.83;2.27;;;;;;;;;;5009862;28;20054;-57
2021/12/12 05:49:50;;;;;;;5.28;2.25;;;;;;;;;;5031183;28;20467;-58
2021/12/12 05:52:18;;;;;;;6.20;2.35;;;;;;;;;;4995489;28;20065;-57
2021/12/12 05:55:04;;;;;;;4.30;1.90;;;;;;;;;;5014666;28;20057;-57
2021/12/12 05:57:30;;;;;;;5.82;2.33;;;;;;;;;;4998275;28;20052;-56
2021/12/12 05:59:57;;;;;;;5.65;2.17;;;;;;;;;;5006007;28;20103;-55
2021/12/12 06:02:25;;;;;;;7.90;2.38;;;;;;;;;;5008357;28;20514;-58
2021/12/12 06:04:54;;;;;;;5.68;2.40;;;;;;;;;;5004321;28;20073;-56
2021/12/12 06:07:21;;;;;;;5.28;2.40;;;;;;;;;;5009055;28;20587;-56
2021/12/12 06:09:49;;;;;;;6.18;2.45;;;;;;;;;;4993575;28;20050;-57
2021/12/12 06:12:16;;;;;;;5.78;2.33;;;;;;;;;;4992271;28;20518;-57
2021/12/12 06:14:45;;;;;;;4.32;1.95;;;;;;;;;;4977824;28;20058;-54
2021/12/12 06:17:13;;;;;;;4.53;1.58;;;;;;;;;;5001222;28;20057;-56
2021/12/12 06:19:40;;;;;;;7.72;2.40;;;;;;;;;;5020582;28;20666;-55
2021/12/12 06:22:09;;;;;;;9.07;2.72;;;;;;;;;;5012465;28;20054;-57
2021/12/12 06:24:38;;;;;;;6.57;2.72;;;;;;;;;;4999489;28;20133;-55
2021/12/12 06:27:06;;;;;;;6.40;2.25;;;;;;;;;;5011103;28;20109;-54
2021/12/12 06:29:33;;;;;;;8.00;2.53;;;;;;;;;;4985196;28;20112;-56
2021/12/12 06:31:59;;;;;;;5.65;2.47;;;;;;;;;;5004870;28;20411;-56
2021/12/12 06:34:29;;;;;;;6.45;2.45;;;;;;;;;;4999309;28;20053;-54
2021/12/12 06:36:56;;;;;;;6.13;2.83;;;;;;;;;;4993491;28;20057;-55
2021/12/12 06:39:24;;;;;;;7.03;3.00;;;;;;;;;;5005766;28;20046;-53
2021/12/12 06:41:51;;;;;;;5.40;2.35;;;;;;;;;;5013279;28;20105;-56
2021/12/12 06:44:19;;;;;;;7.47;2.90;;;;;;;;;;4993167;28;20050;-56
2021/12/12 06:46:45;;;;;;;7.37;2.67;;;;;;;;;;5006836;28;20074;-53
2021/12/12 06:49:13;;;;;;;6.90;2.85;;;;;;;;;;5029680;28;20137;-56
2021/12/12 06:51:41;;;;;;;6.68;3.15;;;;;;;;;;5007503;28;20050;-56
2021/12/12 06:54:10;;;;;;;8.27;2.78;;;;;;;;;;4993259;28;20062;-53
2021/12/12 06:56:38;;;;;;;6.78;2.72;;;;;;;;;;4989300;28;20249;-56
2021/12/12 06:59:05;;;;;;;8.98;3.30;;;;;;;;;;4993532;28;20057;-54
2021/12/12 07:01:33;;;;;;;7.95;3.08;;;;;;;;;;5004911;28;20132;-55
2021/12/12 07:04:01;;;;;;;11.38;3.15;;;;;;;;;;5011518;28;20056;-56
2021/12/12 07:06:29;;;;;;;7.90;3.23;;;;;;;;;;5009251;28;20053;-56
2021/12/12 07:08:57;;;;;;;20.00;3.97;;;;;;;;;;5013040;28;20137;-57
2021/12/12 07:11:26;;;;;;;14.05;3.88;;;;;;;;;;5012217;28;20129;-55
2021/12/12 07:13:56;;;;;;;10.38;3.65;;;;;;;;;;5032122;28;20042;-57
2021/12/12 07:16:23;;;;;;;11.35;4.40;;;;;;;;;;5008660;28;20065;-58
2021/12/12 07:18:50;;;;;;;9.98;3.72;;;;;;;;;;5026658;28;20114;-56
2021/12/12 07:21:17;;;;;;;7.75;3.58;;;;;;;;;;4988552;28;20113;-55
2021/12/12 07:23:45;;;;;;;11.93;4.13;;;;;;;;;;4990772;28;20050;-55
2021/12/12 07:26:12;;;;;;;9.63;4.00;;;;;;;;;;4986896;28;20120;-57
2021/12/12 07:28:40;;;;;;;11.23;4.27;;;;;;;;;;4966430;28;20135;-55
2021/12/12 07:31:09;;;;;;;8.27;3.40;;;;;;;;;;4973147;28;20141;-56
2021/12/12 07:33:39;;;;;;;8.52;3.05;;;;;;;;;;4983573;28;20595;-57
2021/12/12 07:36:07;;;;;;;16.05;4.57;;;;;;;;;;4973379;28;20066;-57
2021/12/12 07:38:36;;;;;;;13.23;4.23;;;;;;;;;;4975458;28;20137;-54
2021/12/12 07:41:03;;;;;;;13.80;5.63;;;;;;;;;;4989558;28;20084;-57
2021/12/12 07:43:31;;;;;;;13.43;4.43;;;;;;;;;;5019636;28;20132;-56
2021/12/12 07:45:58;;;;;;;14.18;6.13;;;;;;;;;;5011837;28;20077;-54
2021/12/12 07:48:26;;;;;;;15.73;6.20;;;;;;;;;;5007664;28;20585;-55
2021/12/12 07:50:53;;;;;;;16.20;5.20;;;;;;;;;;5011364;28;20144;-52
2021/12/12 07:53:23;;;;;;;15.10;5.97;;;;;;;;;;5001981;28;20076;-55
2021/12/12 07:55:50;;;;;;;12.57;5.25;;;;;;;;;;5005749;28;20145;-57
2021/12/12 07:58:17;;;;;;;16.67;4.88;;;;;;;;;;5005232;28;20060;-56
2021/12/12 08:00:45;;;;;;;16.65;5.03;;;;;;;;;;5018217;28;20116;-55
2021/12/12 08:03:13;;;;;;;14.20;5.28;;;;;;;;;;5003137;28;20068;-56
2021/12/12 08:05:41;;;;;;;10.88;5.05;;;;;;;;;;5007322;28;20434;-55
2021/12/12 08:08:08;;;;;;;;;;;;;;;;;;5014943;28;20054;-55
2021/12/12 08:10:35;;;;;;;11.75;4.15;;;;;;;;;;5005244;28;19971;-55
2021/12/12 08:13:02;;;;;;;11.13;4.47;;;;;;;;;;5010109;28;20061;-57
2021/12/12 08:15:29;;;;;;;15.85;5.25;;;;;;;;;;5003628;28;20111;-55
2021/12/12 08:17:56;;;;;;;15.48;5.93;;;;;;;;;;5004602;28;20050;-57
2021/12/12 08:20:25;;;;;;;18.15;5.82;;;;;;;;;;4981173;28;20061;-56
2021/12/12 08:22:53;;;;;;;15.77;5.10;;;;;;;;;;4989959;28;20393;-56
2021/12/12 08:25:20;;;;;;;18.13;6.82;;;;;;;;;;5005572;28;20077;-54
2021/12/12 08:27:47;;;;;;;22.05;7.00;;;;;;;;;;5009881;28;20057;-56
2021/12/12 08:30:16;;;;;;;19.00;5.63;;;;;;;;;;5005966;28;20050;-58
2021/12/12 08:32:43;;;;;;;16.88;7.35;;;;;;;;;;5026708;28;20534;-56
2021/12/12 08:35:19;;;;;;;16.90;6.10;;;;;;;;;;5025761;28;20046;-56
2021/12/12 08:37:46;;;;;;;12.82;5.35;;;;;;;;;;5013429;28;20050;-58
2021/12/12 08:40:18;;;;;;;16.50;6.32;;;;;;;;;;5005697;28;20049;-57
2021/12/12 08:42:45;;;;;;;20.52;8.20;;;;;;;;;;5009739;28;20113;-55
2021/12/12 08:45:14;;;;;;;19.88;6.90;;;;;;;;;;5005120;28;20056;-53
2021/12/12 08:47:41;;;;;;;12.10;5.35;;;;;;;;;;5009748;28;20085;-53
2021/12/12 08:50:09;;;;;;;21.33;7.40;;;;;;;;;;4985680;28;20109;-56
2021/12/12 08:52:37;;;;;;;22.75;7.13;;;;;;;;;;5002535;28;20109;-54
2021/12/12 08:55:07;;;;;;;18.00;6.55;;;;;;;;;;4998820;28;20060;-57
2021/12/12 08:57:45;;;;;;;20.08;6.93;;;;;;;;;;5005853;28;20133;-56
2021/12/12 09:00:15;;;;;;;18.45;7.05;;;;;;;;;;5003809;28;20042;-57
2021/12/12 09:02:42;;;;;;;18.98;6.68;;;;;;;;;;5017191;28;20054;-56
2021/12/12 09:05:13;;;;;;;16.38;5.78;;;;;;;;;;5002981;28;20152;-56
2021/12/12 09:07:41;;;;;;;14.13;6.03;;;;;;;;;;5007037;28;20058;-57
2021/12/12 09:10:10;;;;;;;14.95;6.03;;;;;;;;;;5000552;28;20053;-56
2021/12/12 09:12:40;;;;;;;16.17;6.50;;;;;;;;;;4991753;28;20105;-56
2021/12/12 09:15:10;;;;;;;18.45;7.25;;;;;;;;;;5015745;28;20137;-57
2021/12/12 09:17:38;;;;;;;18.55;6.20;;;;;;;;;;4992754;28;20058;-57
2021/12/12 09:20:10;;;;;;;14.15;6.40;;;;;;;;;;5018095;28;20057;-57
2021/12/12 09:22:41;;;;;;;24.33;6.72;;;;;;;;;;5000873;28;20081;-58
2021/12/12 09:25:14;;;;;;;18.25;6.18;;;;;;;;;;5014081;28;20054;-57
2021/12/12 09:27:44;;;;;;;18.02;6.53;;;;;;;;;;5011557;28;20061;-57
2021/12/12 09:30:12;;;;;;;20.25;6.75;;;;;;;;;;5005578;28;20108;-56
2021/12/12 09:32:42;;;;;;;11.48;5.63;;;;;;;;;;5020311;28;20127;-56
2021/12/12 09:35:11;;;;;;;18.73;7.03;;;;;;;;;;5009015;28;20143;-57
2021/12/12 09:37:39;;;;;;;22.13;6.78;;;;;;;;;;5004658;28;20152;-55
2021/12/12 09:40:12;;;;;;;24.33;9.25;;;;;;;;;;5009178;28;20088;-58
2021/12/12 09:42:50;;;;;;;19.23;8.02;;;;;;;;;;5004381;28;20058;-58
2021/12/12 09:45:50;;;;;;;21.58;7.55;;;;;;;;;;5008735;28;20054;-56
2021/12/12 09:51:19;;;;;;;17.73;6.68;;;;;;;;;;5007789;28;20093;-56
2021/12/12 09:54:06;;;;;;;22.60;7.10;;;;;;;;;;5000705;28;20070;-56
2021/12/12 09:56:35;;;;;;;22.52;6.68;;;;;;;;;;4989928;28;20412;-58
2021/12/12 09:59:06;;;;;;;16.77;7.63;;;;;;;;;;5013535;28;20058;-57
2021/12/12 10:01:34;;;;;;;17.40;6.97;;;;;;;;;;5022754;28;20492;-57
2021/12/12 10:04:16;;;;;;;13.30;6.15;;;;;;;;;;5003489;28;20070;-56
2021/12/12 10:06:46;;;;;;;18.35;5.65;;;;;;;;;;5013021;28;20050;-58
2021/12/12 10:09:15;;;;;;;16.48;6.22;;;;;;;;;;4991738;28;20104;-54
2021/12/12 10:11:41;;;;;;;;;;;;;;;;;;4992841;28;20050;-55
2021/12/12 10:14:13;;;;;;;13.98;5.07;;;;;;;;;;5000068;28;19929;-58
2021/12/12 10:16:40;;;;;;;14.25;6.05;;;;;;;;;;5012433;28;20050;-56
2021/12/12 10:19:11;;;;;;;15.40;5.63;;;;;;;;;;5008308;28;20050;-58
2021/12/12 10:21:41;;;;;;;13.27;5.30;;;;;;;;;;5012338;28;20145;-58
2021/12/12 10:24:18;;;;;;;13.80;5.90;;;;;;;;;;5007431;28;20077;-58
2021/12/12 10:26:46;;;;;;;13.52;6.00;;;;;;;;;;5012124;28;20057;-58
2021/12/12 10:29:17;;;;;;;16.45;6.57;;;;;;;;;;5008481;28;20065;-57
2021/12/12 10:31:47;;;;;;;12.10;5.55;;;;;;;;;;5011699;28;20112;-58
2021/12/12 10:34:20;;;;;;;14.80;5.47;;;;;;;;;;5008529;28;20399;-58
2021/12/12 10:36:50;;;;;;;14.93;5.15;;;;;;;;;;4990706;28;20153;-58
2021/12/12 10:39:19;;;;;;;9.35;4.57;;;;;;;;;;4980621;28;20042;-58
2021/12/12 10:41:48;;;;;;;10.52;5.05;;;;;;;;;;4991803;28;20050;-58
2021/12/12 10:44:23;;;;;;;16.08;5.55;;;;;;;;;;4988088;28;20061;-55
2021/12/12 10:46:52;;;;;;;12.50;5.03;;;;;;;;;;4992939;28;20066;-57
2021/12/12 10:49:23;;;;;;;12.50;5.30;;;;;;;;;;4988132;28;20051;-58
2021/12/12 10:51:51;;;;;;;13.10;5.15;;;;;;;;;;4992130;28;20062;-58
2021/12/12 10:54:24;;;;;;;13.35;5.95;;;;;;;;;;4988186;28;20058;-58
2021/12/12 10:56:53;;;;;;;15.07;6.28;;;;;;;;;;4991825;28;20166;-58
2021/12/12 10:59:23;;;;;;;16.52;6.72;;;;;;;;;;4989418;28;20051;-56
2021/12/12 11:01:51;;;;;;;10.25;5.10;;;;;;;;;;4964694;28;20145;-58
2021/12/12 11:04:19;;;;;;;10.10;4.47;;;;;;;;;;4988048;28;20058;-56
2021/12/12 11:06:47;;;;;;;10.55;4.95;;;;;;;;;;5001898;28;20054;-57
2021/12/12 11:09:15;;;;;;;8.07;4.05;;;;;;;;;;5000474;28;20046;-58
2021/12/12 11:11:43;;;;;;;10.43;4.73;;;;;;;;;;5010647;28;20061;-57
2021/12/12 11:14:15;;;;;;;11.63;4.75;;;;;;;;;;5011206;28;20050;-58
2021/12/12 11:16:44;;;;;;;8.48;4.22;;;;;;;;;;5006411;28;20065;-57
2021/12/12 11:19:14;;;;;;;9.63;4.30;;;;;;;;;;5015269;28;20050;-58
2021/12/12 11:21:42;;;;;;;11.68;5.10;;;;;;;;;;4987258;28;20058;-58
2021/12/12 11:24:14;;;;;;;11.02;4.57;;;;;;;;;;4999247;28;20064;-58
2021/12/12 11:26:42;;;;;;;13.13;4.57;;;;;;;;;;5000361;28;20117;-57
2021/12/12 11:29:11;;;;;;;10.40;4.63;;;;;;;;;;4991007;28;20058;-59
2021/12/12 11:31:37;;;;;;;;;;;;;;;;;;4986479;28;20060;-58
2021/12/12 11:34:08;;;;;;;8.45;3.95;;;;;;;;;;4990948;28;19922;-58
2021/12/12 11:36:36;;;;;;;10.32;4.97;;;;;;;;;;4986823;28;20054;-58
2021/12/12 11:39:03;;;;;;;;;;;;;;;;;;4991059;28;20051;-57
2021/12/12 11:41:33;;;;;;;9.80;4.10;;;;;;;;;;4986451;28;19965;-57
2021/12/12 11:44:04;;;;;;;14.60;5.82;;;;;;;;;;5006606;28;20062;-58
2021/12/12 11:46:34;;;;;;;11.35;5.13;;;;;;;;;;5004211;28;20088;-56
2021/12/12 11:49:03;;;;;;;11.25;5.15;;;;;;;;;;5006769;28;20519;-58
2021/12/12 11:51:33;;;;;;;9.88;4.50;;;;;;;;;;4985391;28;20054;-56
2021/12/12 11:54:02;;;;;;;10.45;4.82;;;;;;;;;;5009212;28;20057;-58
2021/12/12 11:56:31;;;;;;;10.05;4.13;;;;;;;;;;4988057;28;20157;-57
2021/12/12 11:58:57;;;;;;;;;;;;;;;;;;5006180;28;20116;-57
2021/12/12 12:01:27;;;;;;;8.00;3.75;;;;;;;;;;5009890;28;19925;-57
2021/12/12 12:04:13;;;;;;;13.18;4.53;;;;;;;;;;5006877;28;20052;-59
2021/12/12 12:06:50;;;;;;;9.52;4.60;;;;;;;;;;5005017;28;20057;-58
2021/12/12 12:09:28;;;;;;;9.57;4.72;;;;;;;;;;5006566;28;20069;-58
2021/12/12 12:12:05;;;;;;;10.52;4.45;;;;;;;;;;5011019;28;20053;-59
2021/12/12 12:14:35;;;;;;;10.82;4.90;;;;;;;;;;5007299;28;20053;-58
2021/12/12 12:17:06;;;;;;;9.13;4.10;;;;;;;;;;5011563;28;20050;-59
2021/12/12 12:19:37;;;;;;;11.80;5.03;;;;;;;;;;5006915;28;20072;-58
2021/12/12 12:22:23;;;;;;;8.98;4.65;;;;;;;;;;5010714;28;20060;-58
2021/12/12 12:25:13;;;;;;;9.15;4.63;;;;;;;;;;5006374;28;20137;-58
2021/12/12 12:27:43;;;;;;;13.40;5.72;;;;;;;;;;5011113;28;20057;-59
2021/12/12 12:30:24;;;;;;;11.00;5.35;;;;;;;;;;4970814;28;20113;-58
2021/12/12 12:33:09;;;;;;;14.38;5.95;;;;;;;;;;4995881;28;20505;-58
2021/12/12 12:35:54;;;;;;;9.25;4.65;;;;;;;;;;5010711;28;20104;-59
2021/12/12 12:38:50;;;;;;;9.85;5.18;;;;;;;;;;5006808;28;20574;-59
2021/12/12 12:41:49;;;;;;;10.57;4.60;;;;;;;;;;5027348;28;20060;-59
2021/12/12 12:44:37;;;;;;;10.35;4.75;;;;;;;;;;5006511;28;20092;-59
2021/12/12 12:47:22;;;;;;;8.82;4.32;;;;;;;;;;4992718;28;20112;-58
2021/12/12 12:50:07;;;;;;;9.40;4.78;;;;;;;;;;4990326;28;20579;-59
2021/12/12 12:52:52;;;;;;;9.25;4.15;;;;;;;;;;4992637;28;20050;-58
2021/12/12 12:55:51;;;;;;;10.18;4.47;;;;;;;;;;4986879;28;20050;-59
2021/12/12 12:58:32;;;;;;;9.38;4.30;;;;;;;;;;4998999;28;20056;-58
2021/12/12 13:01:06;;;;;;;14.15;5.85;;;;;;;;;;4989750;28;20538;-58
2021/12/12 13:03:43;;;;;;;13.85;5.57;;;;;;;;;;5015461;28;20113;-58
2021/12/12 13:06:28;;;;;;;11.25;4.93;;;;;;;;;;5009458;28;20085;-58
2021/12/12 13:09:06;;;;;;;13.45;5.70;;;;;;;;;;5006344;28;20046;-58
2021/12/12 13:11:37;;;;;;;12.05;5.40;;;;;;;;;;5013091;28;20064;-59
2021/12/12 13:14:12;;;;;;;12.02;5.40;;;;;;;;;;5017290;28;20136;-58
2021/12/12 13:16:44;;;;;;;12.25;6.13;;;;;;;;;;5020182;28;20062;-58
2021/12/12 13:19:13;;;;;;;13.60;6.88;;;;;;;;;;5013023;28;20178;-59
2021/12/12 13:21:43;;;;;;;13.32;6.50;;;;;;;;;;4997843;28;20062;-58
2021/12/12 13:24:14;;;;;;;13.27;5.57;;;;;;;;;;5005627;28;20062;-58
2021/12/12 13:27:00;;;;;;;11.73;4.95;;;;;;;;;;5018061;28;20053;-58
2021/12/12 13:29:35;;;;;;;14.43;6.78;;;;;;;;;;5007322;28;20088;-58
2021/12/12 13:32:05;;;;;;;13.43;6.38;;;;;;;;;;5001533;28;20081;-58
2021/12/12 13:34:36;;;;;;;15.45;7.05;;;;;;;;;;5016201;28;20058;-57
2021/12/12 13:37:14;;;;;;;16.15;6.57;;;;;;;;;;4999062;28;20506;-58
2021/12/12 13:39:47;;;;;;;12.82;5.85;;;;;;;;;;4986581;28;20065;-59
2021/12/12 13:42:21;;;;;;;21.67;10.60;;;;;;;;;;4980439;28;20145;-58
2021/12/12 13:45:04;;;;;;;19.75;9.25;;;;;;;;;;4985914;28;20047;-59
2021/12/12 13:47:36;;;;;;;12.27;6.35;;;;;;;;;;4982111;28;20098;-58
2021/12/12 13:50:08;;;;;;;14.30;6.20;;;;;;;;;;5007124;28;20081;-59
2021/12/12 13:52:38;;;;;;;13.20;6.40;;;;;;;;;;5007881;28;20058;-59
2021/12/12 13:55:14;;;;;;;16.40;7.13;;;;;;;;;;5002828;28;20140;-59
2021/12/12 13:57:49;;;;;;;11.50;5.40;;;;;;;;;;5000513;28;20065;-58
2021/12/12 14:00:18;;;;;;;12.63;6.10;;;;;;;;;;5006764;28;20084;-59
2021/12/12 14:02:46;;;;;;;11.88;5.97;;;;;;;;;;5012880;28;20060;-59
2021/12/12 14:05:16;;;;;;;14.50;6.83;;;;;;;;;;5006073;28;20087;-58
2021/12/12 14:07:45;;;;;;;12.18;6.07;;;;;;;;;;5004290;28;20054;-59
2021/12/12 14:10:15;;;;;;;10.75;5.43;;;;;;;;;;5015461;28;20118;-57
2021/12/12 14:12:43;;;;;;;15.48;6.97;;;;;;;;;;5000546;28;20146;-57
2021/12/12 14:15:13;;;;;;;13.15;6.35;;;;;;;;;;5008983;28;20158;-57
2021/12/12 14:17:45;;;;;;;15.15;7.45;;;;;;;;;;4996733;28;20194;-59
2021/12/12 14:20:13;;;;;;;11.82;6.05;;;;;;;;;;5011698;28;20058;-58
2021/12/12 14:22:43;;;;;;;14.63;7.88;;;;;;;;;;5011367;28;20057;-59
2021/12/12 14:25:10;;;;;;;13.57;6.53;;;;;;;;;;5020075;28;20046;-58
2021/12/12 14:27:40;;;;;;;17.17;7.82;;;;;;;;;;5001565;28;20069;-58
2021/12/12 14:30:09;;;;;;;20.52;10.18;;;;;;;;;;5005896;28;20451;-59
2021/12/12 14:32:37;;;;;;;15.00;7.43;;;;;;;;;;5012663;28;20053;-59
2021/12/12 14:35:13;;;;;;;18.10;7.38;;;;;;;;;;5004689;28;20058;-59
2021/12/12 14:37:39;;;;;;;15.05;7.35;;;;;;;;;;5017464;28;20055;-59
2021/12/12 14:40:09;;;;;;;12.90;6.78;;;;;;;;;;5010241;28;20050;-59
2021/12/12 14:42:38;;;;;;;13.27;6.50;;;;;;;;;;5007101;28;20050;-58
2021/12/12 14:45:09;;;;;;;14.60;6.90;;;;;;;;;;5001866;28;20053;-57
2021/12/12 14:47:37;;;;;;;12.40;6.35;;;;;;;;;;5004756;28;20081;-59
2021/12/12 14:50:11;;;;;;;14.35;6.95;;;;;;;;;;4992470;28;20072;-59
2021/12/12 14:52:39;;;;;;;14.45;6.85;;;;;;;;;;5017555;28;20083;-59
2021/12/12 14:55:11;;;;;;;12.90;6.40;;;;;;;;;;4999927;28;20132;-57
2021/12/12 14:57:40;;;;;;;14.48;7.22;;;;;;;;;;5015175;28;20452;-57
2021/12/12 15:00:09;;;;;;;11.68;6.05;;;;;;;;;;4995320;28;20057;-58
2021/12/12 15:02:36;;;;;;;15.98;6.75;;;;;;;;;;4979739;28;20058;-59
2021/12/12 15:05:13;;;;;;;13.60;7.00;;;;;;;;;;5004687;28;20038;-58
2021/12/12 15:07:40;;;;;;;13.85;7.03;;;;;;;;;;5008140;28;20129;-59
2021/12/12 15:10:12;;;;;;;10.82;6.05;;;;;;;;;;5014760;28;20053;-59
2021/12/12 15:12:42;;;;;;;14.48;6.75;;;;;;;;;;5023115;28;20054;-59
2021/12/12 15:15:16;;;;;;;17.05;8.38;;;;;;;;;;4994837;28;20137;-58